createdAt,value
2022-09-15T00:01:57.925Z,52.93
2022-09-15T00:06:50.528Z,52.96
2022-09-15T00:11:43.310Z,52.99
2022-09-15T00:16:36.384Z,52.96
2022-09-15T00:21:29.022Z,52.94
2022-09-15T00:26:21.726Z,52.97
2022-09-15T00:31:14.472Z,52.99
2022-09-15T00:36:07.220Z,52.97
2022-09-15T00:40:59.862Z,52.96
2022-09-15T00:45:52.404Z,53
2022-09-15T00:50:44.941Z,53.04
2022-09-15T00:55:37.637Z,52.96
2022-09-15T01:00:30.283Z,52.97
2022-09-15T01:05:22.794Z,52.91
2022-09-15T01:10:15.431Z,52.92
2022-09-15T01:15:08.031Z,52.92
2022-09-15T01:20:00.620Z,52.88
2022-09-15T01:24:53.151Z,52.85
2022-09-15T01:29:45.927Z,52.84
2022-09-15T01:34:38.516Z,52.8
2022-09-15T01:39:31.102Z,52.84
2022-09-15T01:44:23.575Z,52.91
2022-09-15T01:49:16.459Z,52.85
2022-09-15T01:54:09.368Z,52.78
2022-09-15T01:59:02.092Z,52.82
2022-09-15T02:03:54.704Z,52.83
2022-09-15T02:08:47.456Z,52.77
2022-09-15T02:13:40.166Z,52.79
2022-09-15T02:18:32.824Z,52.77
2022-09-15T02:23:25.557Z,52.79
2022-09-15T02:28:18.136Z,52.72
2022-09-15T02:33:10.944Z,52.71
2022-09-15T02:38:03.851Z,52.66
2022-09-15T02:42:56.547Z,52.71
2022-09-15T02:47:49.171Z,52.76
2022-09-15T02:52:42.016Z,52.69
2022-09-15T02:57:34.510Z,52.73
2022-09-15T03:02:27.172Z,52.67
2022-09-15T03:07:20.017Z,52.61
2022-09-15T03:12:06.845Z,52.72
2022-09-15T03:17:00.405Z,52.71
2022-09-15T03:21:54.163Z,52.67
2022-09-15T03:26:46.896Z,52.69
2022-09-15T03:31:39.691Z,52.72
2022-09-15T03:36:32.307Z,52.63
2022-09-15T03:41:25.070Z,52.71
2022-09-15T03:46:17.789Z,52.65
2022-09-15T03:51:10.446Z,52.68
2022-09-15T03:56:03.232Z,52.66
2022-09-15T04:00:56.034Z,52.62
2022-09-15T04:05:48.391Z,52.6
2022-09-15T04:10:41.136Z,52.7
2022-09-15T04:15:33.903Z,52.73
2022-09-15T04:20:26.568Z,52.75
2022-09-15T04:25:19.295Z,52.74
2022-09-15T04:30:12.134Z,52.86
2022-09-15T04:35:04.861Z,52.7
2022-09-15T04:39:57.572Z,54.44
2022-09-15T04:44:50.261Z,53.04
2022-09-15T04:49:42.646Z,53.31
2022-09-15T04:54:35.254Z,54.22
2022-09-15T04:59:27.879Z,54.09
2022-09-15T05:04:20.728Z,53.66
2022-09-15T05:09:13.455Z,53.67
2022-09-15T05:14:06.337Z,54.48
2022-09-15T05:18:59.141Z,53.44
2022-09-15T05:23:52.060Z,53.87
2022-09-15T05:28:44.493Z,53.24
2022-09-15T05:33:36.749Z,53.6
2022-09-15T05:38:29.511Z,53.19
2022-09-15T05:43:22.067Z,52.97
2022-09-15T05:48:14.975Z,52.72
2022-09-15T05:53:07.656Z,52.48
2022-09-15T05:58:00.479Z,52.53
2022-09-15T06:02:53.081Z,52.37
2022-09-15T06:07:45.650Z,52.31
2022-09-15T06:12:38.392Z,52.3
2022-09-15T06:17:30.935Z,53.21
2022-09-15T06:22:23.595Z,52.45
2022-09-15T06:27:16.276Z,54.31
2022-09-15T06:32:09.032Z,52
2022-09-15T06:37:01.560Z,52.08
2022-09-15T06:42:02.102Z,51.87
2022-09-15T06:46:47.014Z,52.08
2022-09-15T06:51:39.697Z,52.08
2022-09-15T06:56:37.176Z,51.9
2022-09-15T07:01:25.226Z,51.21
2022-09-15T07:06:17.526Z,51.26
2022-09-15T07:11:10.203Z,51.3
2022-09-15T07:16:03.009Z,53.22
2022-09-15T07:20:55.322Z,51.6
2022-09-15T07:25:47.632Z,52.47
2022-09-15T07:30:39.864Z,51.16
2022-09-15T07:35:32.510Z,51.32
2022-09-15T07:40:26.235Z,52.43
2022-09-15T07:45:18.840Z,50.96
2022-09-15T07:50:11.591Z,50.27
2022-09-15T07:55:03.781Z,50.33
2022-09-15T07:59:51.387Z,50.38
2022-09-15T08:04:43.959Z,50.16
2022-09-15T08:09:37.845Z,50.16
2022-09-15T08:14:30.614Z,50.14
2022-09-15T08:19:23.208Z,50.07
2022-09-15T08:24:15.919Z,50.05
2022-09-15T08:29:08.360Z,50.05
2022-09-15T08:34:01.028Z,49.96
2022-09-15T08:38:53.654Z,50.04
2022-09-15T08:43:46.182Z,49.94
2022-09-15T08:48:38.572Z,49.71
2022-09-15T08:53:26.270Z,49.22
2022-09-15T08:58:18.910Z,48.97
2022-09-15T09:03:12.643Z,49.02
2022-09-15T09:08:00.225Z,49.14
2022-09-15T09:12:52.775Z,48.92
2022-09-15T09:17:46.618Z,49.71
2022-09-15T09:22:39.506Z,49.69
2022-09-15T09:27:32.213Z,49.63
2022-09-15T09:32:25.088Z,49.56
2022-09-15T09:37:17.672Z,49.56
2022-09-15T09:42:10.449Z,49.49
2022-09-15T09:47:03.338Z,49.42
2022-09-15T09:51:55.992Z,49.64
2022-09-15T09:56:48.941Z,49.62
2022-09-15T10:01:41.845Z,49.68
2022-09-15T10:06:34.604Z,49.77
2022-09-15T10:11:27.216Z,49.67
2022-09-15T10:16:20.009Z,49.77
2022-09-15T10:21:12.661Z,49.79
2022-09-15T10:26:05.511Z,49.79
2022-09-15T10:30:58.254Z,49.72
2022-09-15T10:35:51.189Z,49.65
2022-09-15T10:40:43.904Z,48.44
2022-09-15T10:45:36.111Z,48.84
2022-09-15T10:50:28.440Z,48
2022-09-15T10:55:32.027Z,48.19
2022-09-15T11:00:13.377Z,48.03
2022-09-15T11:05:06.129Z,47.83
2022-09-15T11:09:58.831Z,48.02
2022-09-15T11:14:51.336Z,48.04
2022-09-15T11:19:44.014Z,47.69
2022-09-15T11:24:36.748Z,47.32
2022-09-15T11:29:29.209Z,47.27
2022-09-15T11:34:21.766Z,47.3
2022-09-15T11:39:13.967Z,47.34
2022-09-15T11:44:06.649Z,47.18
2022-09-15T11:48:59.343Z,46.85
2022-09-15T11:53:51.992Z,46.92
2022-09-15T11:58:44.508Z,47.38
2022-09-15T12:03:37.023Z,47.26
2022-09-15T12:08:29.876Z,47.35
2022-09-15T12:13:22.765Z,47.38
2022-09-15T12:18:34.818Z,47.52
2022-09-15T12:23:08.018Z,47.57
2022-09-15T12:28:00.713Z,47.59
2022-09-15T12:32:53.394Z,47.55
2022-09-15T12:37:46.189Z,47.42
2022-09-15T12:42:38.819Z,47.44
2022-09-15T12:47:31.781Z,47.41
2022-09-15T12:52:24.294Z,47.37
2022-09-15T12:57:16.957Z,47.64
2022-09-15T13:02:09.839Z,47.81
2022-09-15T13:07:02.209Z,47.9
2022-09-15T13:11:54.971Z,47.94
2022-09-15T13:16:47.785Z,48.01
2022-09-15T13:21:40.551Z,47.9
2022-09-15T13:26:33.241Z,47.73
2022-09-15T13:31:26.001Z,47.71
2022-09-15T13:36:18.584Z,47.74
2022-09-15T13:41:11.027Z,47.82
2022-09-15T13:46:03.607Z,47.76
2022-09-15T13:50:56.465Z,47.65
2022-09-15T13:55:49.114Z,47.57
2022-09-15T14:00:41.610Z,47.42
2022-09-15T14:05:34.271Z,47.27
2022-09-15T14:10:27.085Z,47.15
2022-09-15T14:15:19.760Z,47.19
2022-09-15T14:20:12.384Z,47.26
2022-09-15T14:25:04.848Z,47.25
2022-09-15T14:29:57.493Z,46.75
2022-09-15T14:34:50.288Z,46.55
2022-09-15T14:39:42.785Z,46.08
2022-09-15T14:49:28.154Z,45.87
2022-09-15T14:54:20.695Z,46.07
2022-09-15T14:59:13.431Z,45.89
2022-09-15T15:04:06.125Z,45.59
2022-09-15T15:08:58.853Z,45.17
2022-09-15T15:13:51.837Z,44.9
2022-09-15T15:18:44.231Z,44.71
2022-09-15T15:23:37.031Z,44.33
2022-09-15T15:28:29.825Z,43.98
2022-09-15T15:33:22.754Z,43.96
2022-09-15T15:38:15.408Z,43.66
2022-09-15T15:43:08.149Z,43.49
2022-09-15T15:48:00.802Z,43.58
2022-09-15T15:52:53.572Z,43.39
2022-09-15T15:57:46.301Z,43.59
2022-09-15T16:02:39.060Z,43.66
2022-09-15T16:07:33.378Z,43.81
2022-09-15T16:12:24.300Z,43.98
2022-09-15T16:17:16.981Z,44.12
2022-09-15T16:22:09.542Z,44.04
2022-09-15T16:27:02.121Z,43.89
2022-09-15T16:31:55.136Z,44.03
2022-09-15T16:36:47.447Z,44.1
2022-09-15T16:41:40.333Z,44.28
2022-09-15T16:46:33.038Z,44.22
2022-09-15T16:51:29.707Z,44.29
2022-09-15T16:56:18.039Z,44.15
2022-09-15T17:01:10.967Z,43.96
2022-09-15T17:06:03.486Z,44.1
2022-09-15T17:10:56.152Z,44.02
2022-09-15T17:15:48.283Z,44.33
2022-09-15T17:20:41.135Z,44.38
2022-09-15T17:25:33.908Z,44.62
2022-09-15T17:30:26.671Z,45.01
2022-09-15T17:35:19.314Z,45.84
2022-09-15T17:40:06.098Z,45.12
2022-09-15T17:44:59.527Z,44.82
2022-09-15T17:49:53.376Z,44.89
2022-09-15T17:54:46.002Z,45.22
2022-09-15T17:59:38.243Z,48.28
2022-09-15T18:04:31.947Z,45.07
2022-09-15T18:09:23.302Z,45.5
2022-09-15T18:14:16.030Z,44.97
2022-09-15T18:19:08.610Z,44.85
2022-09-15T18:24:01.392Z,45.75
2022-09-15T18:28:54.362Z,44.21
2022-09-15T18:33:46.801Z,44.26
2022-09-15T18:38:40.538Z,44.46
2022-09-15T18:43:32.947Z,44.03
2022-09-15T18:48:25.744Z,44.73
2022-09-15T18:53:18.619Z,44.2
2022-09-15T18:58:10.844Z,44.13
2022-09-15T19:03:03.225Z,44.49
2022-09-15T19:07:56.159Z,44.18
2022-09-15T19:12:48.713Z,44.46
2022-09-15T19:17:41.262Z,44.46
2022-09-15T19:22:33.596Z,44.83
2022-09-15T19:27:26.336Z,45.02
2022-09-15T19:32:19.042Z,44.94
2022-09-15T19:37:15.275Z,45.18
2022-09-15T19:42:04.155Z,45.25
2022-09-15T19:46:56.829Z,45.38
2022-09-15T19:51:44.525Z,45.38
2022-09-15T19:56:37.024Z,45.33
2022-09-15T20:01:30.716Z,45.49
2022-09-15T20:06:23.471Z,45.64
2022-09-15T20:11:16.068Z,45.71
2022-09-15T20:16:08.815Z,45.74
2022-09-15T20:21:01.426Z,45.84
2022-09-15T20:25:54.239Z,45.86
2022-09-15T20:30:46.919Z,45.88
2022-09-15T20:35:39.666Z,45.84
2022-09-15T20:40:32.449Z,45.89
2022-09-15T20:45:25.157Z,45.93
2022-09-15T20:50:17.834Z,45.86
2022-09-15T20:55:10.553Z,46.08
2022-09-15T21:00:03.451Z,45.99
2022-09-15T21:04:56.187Z,45.94
2022-09-15T21:09:48.617Z,46.17
2022-09-15T21:14:41.392Z,46.2
2022-09-15T21:19:34.121Z,46.3
2022-09-15T21:24:26.690Z,46.29
2022-09-15T21:29:19.166Z,46.31
2022-09-15T21:34:11.890Z,46.33
2022-09-15T21:39:04.464Z,46.42
2022-09-15T21:43:57.104Z,46.43
2022-09-15T21:48:49.961Z,46.49
2022-09-15T21:53:42.565Z,46.54
2022-09-15T21:58:37.895Z,46.56
2022-09-15T22:03:27.803Z,46.66
2022-09-15T22:08:20.488Z,46.61
2022-09-15T22:13:13.027Z,46.67
2022-09-15T22:18:05.611Z,46.76
2022-09-15T22:22:58.331Z,46.71
2022-09-15T22:27:50.954Z,46.77
2022-09-15T22:32:43.535Z,46.83
2022-09-15T22:37:36.150Z,46.85
2022-09-15T22:42:28.908Z,46.82
2022-09-15T22:47:21.516Z,46.87
2022-09-15T22:52:14.097Z,46.9
2022-09-15T22:57:06.775Z,46.94
2022-09-15T23:01:59.581Z,46.95
2022-09-15T23:06:52.047Z,47.02
2022-09-15T23:11:44.930Z,47.02
2022-09-15T23:16:37.432Z,47.05
2022-09-15T23:21:30.165Z,47.13
2022-09-15T23:26:22.823Z,47.09
2022-09-15T23:31:15.433Z,47.12
2022-09-15T23:36:07.933Z,47.17
2022-09-15T23:41:00.627Z,47.17
2022-09-15T23:45:53.271Z,47.22
2022-09-15T23:50:45.885Z,47.33
2022-09-15T23:55:38.493Z,47.3
